Rhodhiss, North Carolina
Current Conditions -  °F | °C
As of 6:53 AM on Saturday 20 Dec 2014 (Local Time) from KHKY Reporting Station
Overcast Overcast  
Wind Chill: 33°   Ceiling: 6000
Heat Index: 39°   Visibility: 10mi
Dew Point: 31°   Wind: 8mph
Humidity: 73%   Direction: 60°ENE
Pressure: 30.2"   Gusts: NA
Location:  35.77°N, 81.43°W
Report Text: KHKY 201153Z AUTO 06007KT 10SM BKN060 BKN075 OVC100 04/M01 A3020 RMK AO2 RAE23 SLP219 P0001 60001 70001 T00391006 10056 20033 53005
Loading
Personal Weather Stations






























Interactive Weather Map New forecast layout! Learn more

10-Day Weather Forecast

Advertisements
Track Severe Weather on mobile